sensor_id;sensor_type;location;lat;lon;timestamp;temperature;humidity
18502;DHT22;68437;52.236;5.710;2023-07-29T00:01:24;17.50;99.90
18502;DHT22;68437;52.236;5.710;2023-07-29T00:03:51;17.50;99.90
18502;DHT22;68437;52.236;5.710;2023-07-29T00:06:17;17.50;99.90
18502;DHT22;68437;52.236;5.710;2023-07-29T00:08:44;17.50;99.90
18502;DHT22;68437;52.236;5.710;2023-07-29T00:11:13;17.50;99.90
18502;DHT22;68437;52.236;5.710;2023-07-29T00:13:40;17.40;99.90
18502;DHT22;68437;52.236;5.710;2023-07-29T00:16:07;17.40;99.90
18502;DHT22;68437;52.236;5.710;2023-07-29T00:18:33;17.40;99.90
18502;DHT22;68437;52.236;5.710;2023-07-29T00:21:01;17.40;99.90
18502;DHT22;68437;52.236;5.710;2023-07-29T00:23:28;17.30;99.90
18502;DHT22;68437;52.236;5.710;2023-07-29T00:25:55;17.30;99.90
18502;DHT22;68437;52.236;5.710;2023-07-29T00:28:24;17.20;99.90
18502;DHT22;68437;52.236;5.710;2023-07-29T00:30:51;17.20;99.90
18502;DHT22;68437;52.236;5.710;2023-07-29T00:33:17;17.20;99.90
18502;DHT22;68437;52.236;5.710;2023-07-29T00:35:45;17.20;99.90
18502;DHT22;68437;52.236;5.710;2023-07-29T00:38:12;17.10;99.90
18502;DHT22;68437;52.236;5.710;2023-07-29T00:40:39;17.10;99.90
18502;DHT22;68437;52.236;5.710;2023-07-29T00:43:06;17.00;99.90
18502;DHT22;68437;52.236;5.710;2023-07-29T00:45:34;17.00;99.90
18502;DHT22;68437;52.236;5.710;2023-07-29T00:48:02;16.90;99.90
18502;DHT22;68437;52.236;5.710;2023-07-29T00:50:30;16.90;99.90
18502;DHT22;68437;52.236;5.710;2023-07-29T00:52:57;16.90;99.90
18502;DHT22;68437;52.236;5.710;2023-07-29T00:55:24;16.90;99.90
18502;DHT22;68437;52.236;5.710;2023-07-29T00:57:51;16.90;99.90
18502;DHT22;68437;52.236;5.710;2023-07-29T01:00:21;16.90;99.90
18502;DHT22;68437;52.236;5.710;2023-07-29T01:02:52;16.80;99.90
18502;DHT22;68437;52.236;5.710;2023-07-29T01:05:21;16.70;99.90
18502;DHT22;68437;52.236;5.710;2023-07-29T01:07:53;16.70;99.90
18502;DHT22;68437;52.236;5.710;2023-07-29T01:10:32;16.70;99.90
18502;DHT22;68437;52.236;5.710;2023-07-29T01:13:06;16.70;99.90
18502;DHT22;68437;52.236;5.710;2023-07-29T01:15:43;16.70;99.90
18502;DHT22;68437;52.236;5.710;2023-07-29T01:18:23;16.70;99.90
18502;DHT22;68437;52.236;5.710;2023-07-29T01:20:54;16.80;99.90
18502;DHT22;68437;52.236;5.710;2023-07-29T01:23:25;16.90;99.90
18502;DHT22;68437;52.236;5.710;2023-07-29T01:25:52;16.90;99.90
18502;DHT22;68437;52.236;5.710;2023-07-29T01:28:19;16.90;99.90
18502;DHT22;68437;52.236;5.710;2023-07-29T01:30:49;16.90;99.90
18502;DHT22;68437;52.236;5.710;2023-07-29T01:33:20;16.90;99.90
18502;DHT22;68437;52.236;5.710;2023-07-29T01:35:52;16.90;99.90
18502;DHT22;68437;52.236;5.710;2023-07-29T01:38:32;16.90;99.90
18502;DHT22;68437;52.236;5.710;2023-07-29T01:41:01;16.90;99.90
18502;DHT22;68437;52.236;5.710;2023-07-29T01:43:28;16.90;99.90
18502;DHT22;68437;52.236;5.710;2023-07-29T01:45:55;16.90;99.90
18502;DHT22;68437;52.236;5.710;2023-07-29T01:48:22;16.90;99.90
18502;DHT22;68437;52.236;5.710;2023-07-29T01:50:49;16.90;99.90
18502;DHT22;68437;52.236;5.710;2023-07-29T01:53:16;16.90;99.90
18502;DHT22;68437;52.236;5.710;2023-07-29T01:55:45;16.90;99.90
18502;DHT22;68437;52.236;5.710;2023-07-29T01:58:12;16.90;99.90
18502;DHT22;68437;52.236;5.710;2023-07-29T02:00:39;16.80;99.90
18502;DHT22;68437;52.236;5.710;2023-07-29T02:03:06;16.90;99.90
18502;DHT22;68437;52.236;5.710;2023-07-29T02:05:33;16.90;99.90
18502;DHT22;68437;52.236;5.710;2023-07-29T02:08:00;16.90;99.90
18502;DHT22;68437;52.236;5.710;2023-07-29T02:10:27;16.90;99.90
18502;DHT22;68437;52.236;5.710;2023-07-29T02:12:55;16.90;99.90
18502;DHT22;68437;52.236;5.710;2023-07-29T02:15:22;16.80;99.90
18502;DHT22;68437;52.236;5.710;2023-07-29T02:17:50;16.80;99.90
18502;DHT22;68437;52.236;5.710;2023-07-29T02:20:17;16.90;99.90
18502;DHT22;68437;52.236;5.710;2023-07-29T02:22:44;16.90;99.90
18502;DHT22;68437;52.236;5.710;2023-07-29T02:25:11;16.90;99.90
18502;DHT22;68437;52.236;5.710;2023-07-29T02:27:38;16.90;99.90
18502;DHT22;68437;52.236;5.710;2023-07-29T02:30:07;16.90;99.90
18502;DHT22;68437;52.236;5.710;2023-07-29T02:32:35;17.00;99.90
18502;DHT22;68437;52.236;5.710;2023-07-29T02:35:02;17.00;99.90
18502;DHT22;68437;52.236;5.710;2023-07-29T02:37:30;17.00;99.90
18502;DHT22;68437;52.236;5.710;2023-07-29T02:39:57;17.10;99.90
18502;DHT22;68437;52.236;5.710;2023-07-29T02:42:23;17.10;99.90
18502;DHT22;68437;52.236;5.710;2023-07-29T02:44:50;17.20;99.90
18502;DHT22;68437;52.236;5.710;2023-07-29T02:47:19;17.20;99.90
18502;DHT22;68437;52.236;5.710;2023-07-29T02:49:46;17.20;99.90
18502;DHT22;68437;52.236;5.710;2023-07-29T02:52:12;17.20;99.90
18502;DHT22;68437;52.236;5.710;2023-07-29T02:54:39;17.20;99.90
18502;DHT22;68437;52.236;5.710;2023-07-29T02:57:06;17.20;99.90
18502;DHT22;68437;52.236;5.710;2023-07-29T02:59:33;17.20;99.90
18502;DHT22;68437;52.236;5.710;2023-07-29T03:02:00;17.20;99.90
18502;DHT22;68437;52.236;5.710;2023-07-29T03:04:29;17.20;99.90
18502;DHT22;68437;52.236;5.710;2023-07-29T03:06:56;17.10;99.90
18502;DHT22;68437;52.236;5.710;2023-07-29T03:09:25;17.10;99.90
18502;DHT22;68437;52.236;5.710;2023-07-29T03:11:52;17.10;99.90
18502;DHT22;68437;52.236;5.710;2023-07-29T03:14:20;17.00;99.90
18502;DHT22;68437;52.236;5.710;2023-07-29T03:16:47;17.00;99.90
18502;DHT22;68437;52.236;5.710;2023-07-29T03:19:14;16.90;99.90
18502;DHT22;68437;52.236;5.710;2023-07-29T03:21:43;16.90;99.90
18502;DHT22;68437;52.236;5.710;2023-07-29T03:24:09;17.00;99.90
18502;DHT22;68437;52.236;5.710;2023-07-29T03:26:36;16.90;99.90
18502;DHT22;68437;52.236;5.710;2023-07-29T03:29:03;16.90;99.90
18502;DHT22;68437;52.236;5.710;2023-07-29T03:31:30;16.80;99.90
18502;DHT22;68437;52.236;5.710;2023-07-29T03:33:57;16.80;99.90
18502;DHT22;68437;52.236;5.710;2023-07-29T03:36:24;16.80;99.90
18502;DHT22;68437;52.236;5.710;2023-07-29T03:38:52;16.80;99.90
18502;DHT22;68437;52.236;5.710;2023-07-29T03:41:19;16.70;99.90
18502;DHT22;68437;52.236;5.710;2023-07-29T03:43:46;16.70;99.90
18502;DHT22;68437;52.236;5.710;2023-07-29T03:46:13;16.70;99.90
18502;DHT22;68437;52.236;5.710;2023-07-29T03:48:43;16.70;99.90
18502;DHT22;68437;52.236;5.710;2023-07-29T03:51:10;16.70;99.90
18502;DHT22;68437;52.236;5.710;2023-07-29T03:53:37;16.70;99.90
18502;DHT22;68437;52.236;5.710;2023-07-29T03:56:05;16.70;99.90
18502;DHT22;68437;52.236;5.710;2023-07-29T03:58:32;16.70;99.90
18502;DHT22;68437;52.236;5.710;2023-07-29T04:00:59;16.70;99.90
18502;DHT22;68437;52.236;5.710;2023-07-29T04:03:26;16.70;99.90
18502;DHT22;68437;52.236;5.710;2023-07-29T04:05:53;16.70;99.90
18502;DHT22;68437;52.236;5.710;2023-07-29T04:08:20;16.70;99.90
18502;DHT22;68437;52.236;5.710;2023-07-29T04:10:47;16.70;99.90
18502;DHT22;68437;52.236;5.710;2023-07-29T04:13:16;16.70;99.90
18502;DHT22;68437;52.236;5.710;2023-07-29T04:15:43;16.70;99.90
18502;DHT22;68437;52.236;5.710;2023-07-29T04:18:09;16.70;99.90
18502;DHT22;68437;52.236;5.710;2023-07-29T04:20:36;16.70;99.90
18502;DHT22;68437;52.236;5.710;2023-07-29T04:23:03;16.70;99.90
18502;DHT22;68437;52.236;5.710;2023-07-29T04:25:30;16.70;99.90
18502;DHT22;68437;52.236;5.710;2023-07-29T04:27:57;16.70;99.90
18502;DHT22;68437;52.236;5.710;2023-07-29T04:30:25;16.70;99.90
18502;DHT22;68437;52.236;5.710;2023-07-29T04:32:52;16.70;99.90
18502;DHT22;68437;52.236;5.710;2023-07-29T04:35:19;16.70;99.90
18502;DHT22;68437;52.236;5.710;2023-07-29T04:37:45;16.70;99.90
18502;DHT22;68437;52.236;5.710;2023-07-29T04:40:13;16.70;99.90
18502;DHT22;68437;52.236;5.710;2023-07-29T04:42:40;16.70;99.90
18502;DHT22;68437;52.236;5.710;2023-07-29T04:45:08;16.70;99.90
18502;DHT22;68437;52.236;5.710;2023-07-29T04:47:36;16.70;99.90
18502;DHT22;68437;52.236;5.710;2023-07-29T04:50:03;16.70;99.90
18502;DHT22;68437;52.236;5.710;2023-07-29T04:52:31;16.70;99.90
18502;DHT22;68437;52.236;5.710;2023-07-29T04:54:58;16.80;99.90
18502;DHT22;68437;52.236;5.710;2023-07-29T04:57:25;16.70;99.90
18502;DHT22;68437;52.236;5.710;2023-07-29T04:59:52;16.80;99.90
18502;DHT22;68437;52.236;5.710;2023-07-29T05:02:19;16.80;99.90
18502;DHT22;68437;52.236;5.710;2023-07-29T05:04:47;16.80;99.90
18502;DHT22;68437;52.236;5.710;2023-07-29T05:07:14;16.80;99.90
18502;DHT22;68437;52.236;5.710;2023-07-29T05:09:41;16.80;99.90
18502;DHT22;68437;52.236;5.710;2023-07-29T05:12:08;16.80;99.90
18502;DHT22;68437;52.236;5.710;2023-07-29T05:14:35;16.80;99.90
18502;DHT22;68437;52.236;5.710;2023-07-29T05:17:02;16.80;99.90
18502;DHT22;68437;52.236;5.710;2023-07-29T05:19:29;16.80;99.90
18502;DHT22;68437;52.236;5.710;2023-07-29T05:21:57;16.80;99.90
18502;DHT22;68437;52.236;5.710;2023-07-29T05:24:24;16.80;99.90
18502;DHT22;68437;52.236;5.710;2023-07-29T05:26:51;16.90;99.90
18502;DHT22;68437;52.236;5.710;2023-07-29T05:29:18;16.90;99.90
18502;DHT22;68437;52.236;5.710;2023-07-29T05:31:45;16.90;99.90
18502;DHT22;68437;52.236;5.710;2023-07-29T05:34:12;16.90;99.90
18502;DHT22;68437;52.236;5.710;2023-07-29T05:36:38;16.90;99.90
18502;DHT22;68437;52.236;5.710;2023-07-29T05:39:07;17.00;99.90
18502;DHT22;68437;52.236;5.710;2023-07-29T05:41:34;17.10;99.90
18502;DHT22;68437;52.236;5.710;2023-07-29T05:44:01;17.10;99.90
18502;DHT22;68437;52.236;5.710;2023-07-29T05:46:28;17.10;99.90
18502;DHT22;68437;52.236;5.710;2023-07-29T05:48:55;17.10;99.90
18502;DHT22;68437;52.236;5.710;2023-07-29T05:51:22;17.10;99.90
18502;DHT22;68437;52.236;5.710;2023-07-29T05:53:49;17.10;99.90
18502;DHT22;68437;52.236;5.710;2023-07-29T05:56:17;17.20;99.90
18502;DHT22;68437;52.236;5.710;2023-07-29T05:58:44;17.20;99.90
18502;DHT22;68437;52.236;5.710;2023-07-29T06:01:11;17.20;99.90
18502;DHT22;68437;52.236;5.710;2023-07-29T06:03:37;17.30;99.90
18502;DHT22;68437;52.236;5.710;2023-07-29T06:06:04;17.30;99.90
18502;DHT22;68437;52.236;5.710;2023-07-29T06:08:31;17.30;99.90
18502;DHT22;68437;52.236;5.710;2023-07-29T06:10:59;17.40;99.90
18502;DHT22;68437;52.236;5.710;2023-07-29T06:13:28;17.40;99.90
18502;DHT22;68437;52.236;5.710;2023-07-29T06:15:55;17.40;99.90
18502;DHT22;68437;52.236;5.710;2023-07-29T06:18:22;17.40;99.90
18502;DHT22;68437;52.236;5.710;2023-07-29T06:20:49;17.50;99.90
18502;DHT22;68437;52.236;5.710;2023-07-29T06:23:16;17.60;99.90
18502;DHT22;68437;52.236;5.710;2023-07-29T06:25:43;17.70;99.90
18502;DHT22;68437;52.236;5.710;2023-07-29T06:28:09;17.80;99.90
18502;DHT22;68437;52.236;5.710;2023-07-29T06:30:38;17.90;99.90
18502;DHT22;68437;52.236;5.710;2023-07-29T06:33:04;17.90;99.90
18502;DHT22;68437;52.236;5.710;2023-07-29T06:35:31;17.90;99.90
18502;DHT22;68437;52.236;5.710;2023-07-29T06:37:58;18.00;99.90
18502;DHT22;68437;52.236;5.710;2023-07-29T06:40:25;18.10;99.90
18502;DHT22;68437;52.236;5.710;2023-07-29T06:42:52;18.20;99.90
18502;DHT22;68437;52.236;5.710;2023-07-29T06:45:19;18.30;99.90
18502;DHT22;68437;52.236;5.710;2023-07-29T06:47:47;18.40;99.90
18502;DHT22;68437;52.236;5.710;2023-07-29T06:50:14;18.40;99.90
18502;DHT22;68437;52.236;5.710;2023-07-29T06:52:41;18.50;99.90
18502;DHT22;68437;52.236;5.710;2023-07-29T06:55:08;18.60;99.90
18502;DHT22;68437;52.236;5.710;2023-07-29T06:57:35;18.80;99.90
18502;DHT22;68437;52.236;5.710;2023-07-29T07:00:02;18.80;99.90
18502;DHT22;68437;52.236;5.710;2023-07-29T07:02:29;18.80;99.90
18502;DHT22;68437;52.236;5.710;2023-07-29T07:04:57;18.70;99.90
18502;DHT22;68437;52.236;5.710;2023-07-29T07:07:24;18.70;99.90
18502;DHT22;68437;52.236;5.710;2023-07-29T07:09:51;18.80;99.90
18502;DHT22;68437;52.236;5.710;2023-07-29T07:12:18;18.80;99.90
18502;DHT22;68437;52.236;5.710;2023-07-29T07:14:45;18.80;99.90
18502;DHT22;68437;52.236;5.710;2023-07-29T07:17:13;18.90;99.90
18502;DHT22;68437;52.236;5.710;2023-07-29T07:19:40;19.10;99.90
18502;DHT22;68437;52.236;5.710;2023-07-29T07:22:08;19.20;99.90
18502;DHT22;68437;52.236;5.710;2023-07-29T07:24:35;19.10;99.90
18502;DHT22;68437;52.236;5.710;2023-07-29T07:27:04;18.90;99.90
18502;DHT22;68437;52.236;5.710;2023-07-29T07:29:31;18.80;99.90
18502;DHT22;68437;52.236;5.710;2023-07-29T07:31:58;18.70;99.90
18502;DHT22;68437;52.236;5.710;2023-07-29T07:34:25;18.80;99.90
18502;DHT22;68437;52.236;5.710;2023-07-29T07:36:52;18.80;99.90
18502;DHT22;68437;52.236;5.710;2023-07-29T07:39:20;19.00;99.90
18502;DHT22;68437;52.236;5.710;2023-07-29T07:41:47;19.00;99.90
18502;DHT22;68437;52.236;5.710;2023-07-29T07:44:14;19.00;99.90
18502;DHT22;68437;52.236;5.710;2023-07-29T07:46:43;19.00;99.90
18502;DHT22;68437;52.236;5.710;2023-07-29T07:49:10;19.00;99.90
18502;DHT22;68437;52.236;5.710;2023-07-29T07:51:38;19.10;99.90
18502;DHT22;68437;52.236;5.710;2023-07-29T07:54:05;19.10;99.90
18502;DHT22;68437;52.236;5.710;2023-07-29T07:56:33;19.10;99.90
18502;DHT22;68437;52.236;5.710;2023-07-29T07:59:00;19.10;99.90
18502;DHT22;68437;52.236;5.710;2023-07-29T08:01:27;19.10;99.90
18502;DHT22;68437;52.236;5.710;2023-07-29T08:03:54;19.10;99.90
18502;DHT22;68437;52.236;5.710;2023-07-29T08:06:21;19.10;99.90
18502;DHT22;68437;52.236;5.710;2023-07-29T08:08:48;19.10;99.90
18502;DHT22;68437;52.236;5.710;2023-07-29T08:11:15;19.10;99.90
18502;DHT22;68437;52.236;5.710;2023-07-29T08:13:43;19.20;99.90
18502;DHT22;68437;52.236;5.710;2023-07-29T08:16:10;19.10;99.90
18502;DHT22;68437;52.236;5.710;2023-07-29T08:18:37;19.10;99.90
18502;DHT22;68437;52.236;5.710;2023-07-29T08:21:04;19.10;99.90
18502;DHT22;68437;52.236;5.710;2023-07-29T08:23:32;19.20;99.90
18502;DHT22;68437;52.236;5.710;2023-07-29T08:26:01;19.20;99.90
18502;DHT22;68437;52.236;5.710;2023-07-29T08:28:31;19.20;99.90
18502;DHT22;68437;52.236;5.710;2023-07-29T08:30:59;19.30;99.90
18502;DHT22;68437;52.236;5.710;2023-07-29T08:33:26;19.30;99.90
18502;DHT22;68437;52.236;5.710;2023-07-29T08:35:54;19.30;99.90
18502;DHT22;68437;52.236;5.710;2023-07-29T08:38:21;19.30;99.90
18502;DHT22;68437;52.236;5.710;2023-07-29T08:40:58;19.40;99.90
18502;DHT22;68437;52.236;5.710;2023-07-29T08:43:29;19.30;99.90
18502;DHT22;68437;52.236;5.710;2023-07-29T08:45:59;19.30;99.90
18502;DHT22;68437;52.236;5.710;2023-07-29T08:48:32;19.50;99.90
18502;DHT22;68437;52.236;5.710;2023-07-29T08:51:01;19.70;99.90
18502;DHT22;68437;52.236;5.710;2023-07-29T08:53:31;20.20;99.90
18502;DHT22;68437;52.236;5.710;2023-07-29T08:56:00;20.10;99.90
18502;DHT22;68437;52.236;5.710;2023-07-29T08:58:27;20.20;99.90
18502;DHT22;68437;52.236;5.710;2023-07-29T09:00:54;20.30;99.90
18502;DHT22;68437;52.236;5.710;2023-07-29T09:03:22;20.20;99.90
18502;DHT22;68437;52.236;5.710;2023-07-29T09:05:50;20.30;99.90
18502;DHT22;68437;52.236;5.710;2023-07-29T09:08:17;20.10;99.90
18502;DHT22;68437;52.236;5.710;2023-07-29T09:10:45;20.10;99.90
18502;DHT22;68437;52.236;5.710;2023-07-29T09:13:12;20.00;99.90
18502;DHT22;68437;52.236;5.710;2023-07-29T09:15:39;20.10;99.90
18502;DHT22;68437;52.236;5.710;2023-07-29T09:18:11;20.20;99.90
18502;DHT22;68437;52.236;5.710;2023-07-29T09:20:40;20.30;99.90
18502;DHT22;68437;52.236;5.710;2023-07-29T09:23:09;20.20;99.90
18502;DHT22;68437;52.236;5.710;2023-07-29T09:25:37;20.10;99.90
18502;DHT22;68437;52.236;5.710;2023-07-29T09:28:09;20.10;99.90
18502;DHT22;68437;52.236;5.710;2023-07-29T09:30:38;20.00;99.90
18502;DHT22;68437;52.236;5.710;2023-07-29T09:33:06;19.90;99.90
18502;DHT22;68437;52.236;5.710;2023-07-29T09:35:35;20.00;99.90
18502;DHT22;68437;52.236;5.710;2023-07-29T09:38:06;20.10;99.90
18502;DHT22;68437;52.236;5.710;2023-07-29T09:40:37;20.20;99.90
18502;DHT22;68437;52.236;5.710;2023-07-29T09:43:05;20.10;99.90
18502;DHT22;68437;52.236;5.710;2023-07-29T09:45:34;20.10;99.90
18502;DHT22;68437;52.236;5.710;2023-07-29T09:48:02;20.10;99.90
18502;DHT22;68437;52.236;5.710;2023-07-29T09:50:30;20.10;99.90
18502;DHT22;68437;52.236;5.710;2023-07-29T09:52:58;20.30;99.90
18502;DHT22;68437;52.236;5.710;2023-07-29T09:55:26;20.30;99.90
18502;DHT22;68437;52.236;5.710;2023-07-29T09:57:56;20.30;99.90
18502;DHT22;68437;52.236;5.710;2023-07-29T10:00:23;20.40;99.90
18502;DHT22;68437;52.236;5.710;2023-07-29T10:02:51;20.70;99.90
18502;DHT22;68437;52.236;5.710;2023-07-29T10:05:19;21.00;99.90
18502;DHT22;68437;52.236;5.710;2023-07-29T10:07:47;21.10;99.90
18502;DHT22;68437;52.236;5.710;2023-07-29T10:10:15;21.20;99.90
18502;DHT22;68437;52.236;5.710;2023-07-29T10:12:44;21.20;99.90
18502;DHT22;68437;52.236;5.710;2023-07-29T10:15:11;21.10;99.90
18502;DHT22;68437;52.236;5.710;2023-07-29T10:17:39;21.00;99.90
18502;DHT22;68437;52.236;5.710;2023-07-29T10:20:08;20.80;99.90
18502;DHT22;68437;52.236;5.710;2023-07-29T10:22:38;20.70;99.90
18502;DHT22;68437;52.236;5.710;2023-07-29T10:25:08;20.70;99.90
18502;DHT22;68437;52.236;5.710;2023-07-29T10:27:55;20.80;99.90
18502;DHT22;68437;52.236;5.710;2023-07-29T10:30:25;20.80;99.90
18502;DHT22;68437;52.236;5.710;2023-07-29T10:32:57;20.70;99.90
18502;DHT22;68437;52.236;5.710;2023-07-29T10:35:24;20.60;99.90
18502;DHT22;68437;52.236;5.710;2023-07-29T10:37:52;20.50;99.90
18502;DHT22;68437;52.236;5.710;2023-07-29T10:40:19;20.40;99.90
18502;DHT22;68437;52.236;5.710;2023-07-29T10:43:01;20.30;99.90
18502;DHT22;68437;52.236;5.710;2023-07-29T10:45:36;20.30;99.90
18502;DHT22;68437;52.236;5.710;2023-07-29T10:48:06;20.40;99.90
18502;DHT22;68437;52.236;5.710;2023-07-29T10:50:34;20.40;99.90
18502;DHT22;68437;52.236;5.710;2023-07-29T10:53:01;20.60;99.90
18502;DHT22;68437;52.236;5.710;2023-07-29T10:55:30;20.70;99.90
18502;DHT22;68437;52.236;5.710;2023-07-29T10:58:10;20.80;99.90
18502;DHT22;68437;52.236;5.710;2023-07-29T11:00:38;20.80;99.90
18502;DHT22;68437;52.236;5.710;2023-07-29T11:03:06;20.80;99.90
18502;DHT22;68437;52.236;5.710;2023-07-29T11:05:47;20.70;99.90
18502;DHT22;68437;52.236;5.710;2023-07-29T11:08:25;20.60;99.90
18502;DHT22;68437;52.236;5.710;2023-07-29T11:11:06;20.40;99.90
18502;DHT22;68437;52.236;5.710;2023-07-29T11:13:36;20.20;99.90
18502;DHT22;68437;52.236;5.710;2023-07-29T11:16:04;20.00;99.90
18502;DHT22;68437;52.236;5.710;2023-07-29T11:18:32;19.80;99.90
18502;DHT22;68437;52.236;5.710;2023-07-29T11:21:00;19.70;99.90
18502;DHT22;68437;52.236;5.710;2023-07-29T11:23:31;19.50;99.90
18502;DHT22;68437;52.236;5.710;2023-07-29T11:25:58;19.50;99.90
18502;DHT22;68437;52.236;5.710;2023-07-29T11:28:26;19.40;99.90
18502;DHT22;68437;52.236;5.710;2023-07-29T11:30:56;19.50;99.90
18502;DHT22;68437;52.236;5.710;2023-07-29T11:33:24;19.60;99.90
18502;DHT22;68437;52.236;5.710;2023-07-29T11:35:53;19.80;99.90
18502;DHT22;68437;52.236;5.710;2023-07-29T11:38:21;20.00;99.90
18502;DHT22;68437;52.236;5.710;2023-07-29T11:40:56;20.20;99.90
18502;DHT22;68437;52.236;5.710;2023-07-29T11:43:23;20.20;99.90
18502;DHT22;68437;52.236;5.710;2023-07-29T11:45:51;20.10;99.90
18502;DHT22;68437;52.236;5.710;2023-07-29T11:48:26;20.00;99.90
18502;DHT22;68437;52.236;5.710;2023-07-29T11:50:53;20.10;99.90
18502;DHT22;68437;52.236;5.710;2023-07-29T11:53:20;20.10;99.90
18502;DHT22;68437;52.236;5.710;2023-07-29T11:55:51;20.00;99.90
18502;DHT22;68437;52.236;5.710;2023-07-29T11:58:18;20.00;99.90
18502;DHT22;68437;52.236;5.710;2023-07-29T12:00:47;19.90;99.90
18502;DHT22;68437;52.236;5.710;2023-07-29T12:03:15;19.80;99.90
18502;DHT22;68437;52.236;5.710;2023-07-29T12:05:44;19.70;99.90
18502;DHT22;68437;52.236;5.710;2023-07-29T12:08:11;19.60;99.90
18502;DHT22;68437;52.236;5.710;2023-07-29T12:10:38;19.50;99.90
18502;DHT22;68437;52.236;5.710;2023-07-29T12:13:08;19.50;99.90
18502;DHT22;68437;52.236;5.710;2023-07-29T12:15:35;19.40;99.90
18502;DHT22;68437;52.236;5.710;2023-07-29T12:18:04;19.40;99.90
18502;DHT22;68437;52.236;5.710;2023-07-29T12:20:31;19.40;99.90
18502;DHT22;68437;52.236;5.710;2023-07-29T12:23:00;19.50;99.90
18502;DHT22;68437;52.236;5.710;2023-07-29T12:25:28;19.60;99.90
18502;DHT22;68437;52.236;5.710;2023-07-29T12:27:55;19.70;99.90
18502;DHT22;68437;52.236;5.710;2023-07-29T12:30:23;20.10;99.90
18502;DHT22;68437;52.236;5.710;2023-07-29T12:32:51;20.50;99.90
18502;DHT22;68437;52.236;5.710;2023-07-29T12:35:18;20.90;99.90
18502;DHT22;68437;52.236;5.710;2023-07-29T12:37:45;21.30;99.90
18502;DHT22;68437;52.236;5.710;2023-07-29T12:40:24;21.40;99.90
18502;DHT22;68437;52.236;5.710;2023-07-29T12:42:51;21.30;99.90
18502;DHT22;68437;52.236;5.710;2023-07-29T12:45:19;21.40;99.90
18502;DHT22;68437;52.236;5.710;2023-07-29T12:47:50;21.70;99.90
18502;DHT22;68437;52.236;5.710;2023-07-29T12:50:17;21.90;99.90
18502;DHT22;68437;52.236;5.710;2023-07-29T12:52:44;21.90;99.90
18502;DHT22;68437;52.236;5.710;2023-07-29T12:55:11;21.70;99.90
18502;DHT22;68437;52.236;5.710;2023-07-29T12:57:41;21.70;99.90
18502;DHT22;68437;52.236;5.710;2023-07-29T13:00:11;22.00;99.90
18502;DHT22;68437;52.236;5.710;2023-07-29T13:02:38;21.90;99.90
18502;DHT22;68437;52.236;5.710;2023-07-29T13:05:09;21.80;99.90
18502;DHT22;68437;52.236;5.710;2023-07-29T13:07:37;21.60;99.90
18502;DHT22;68437;52.236;5.710;2023-07-29T13:10:04;21.40;99.90
18502;DHT22;68437;52.236;5.710;2023-07-29T13:12:31;21.30;99.90
18502;DHT22;68437;52.236;5.710;2023-07-29T13:15:00;21.20;99.90
18502;DHT22;68437;52.236;5.710;2023-07-29T13:17:27;21.20;99.90
18502;DHT22;68437;52.236;5.710;2023-07-29T13:19:53;21.10;99.90
18502;DHT22;68437;52.236;5.710;2023-07-29T13:22:21;21.20;99.90
18502;DHT22;68437;52.236;5.710;2023-07-29T13:24:48;21.30;99.90
18502;DHT22;68437;52.236;5.710;2023-07-29T13:27:15;21.50;99.90
18502;DHT22;68437;52.236;5.710;2023-07-29T13:29:42;21.70;99.90
18502;DHT22;68437;52.236;5.710;2023-07-29T13:32:11;22.00;99.90
18502;DHT22;68437;52.236;5.710;2023-07-29T13:34:37;22.20;99.90
18502;DHT22;68437;52.236;5.710;2023-07-29T13:37:06;22.10;99.90
18502;DHT22;68437;52.236;5.710;2023-07-29T13:39:34;22.10;99.90
18502;DHT22;68437;52.236;5.710;2023-07-29T13:42:00;22.20;99.90
18502;DHT22;68437;52.236;5.710;2023-07-29T13:44:27;22.10;99.90
18502;DHT22;68437;52.236;5.710;2023-07-29T13:46:54;22.10;99.90
18502;DHT22;68437;52.236;5.710;2023-07-29T13:49:22;22.00;99.90
18502;DHT22;68437;52.236;5.710;2023-07-29T13:51:49;21.90;99.90
18502;DHT22;68437;52.236;5.710;2023-07-29T13:54:16;22.10;99.90
18502;DHT22;68437;52.236;5.710;2023-07-29T13:56:43;22.00;99.90
18502;DHT22;68437;52.236;5.710;2023-07-29T13:59:11;22.00;99.90
18502;DHT22;68437;52.236;5.710;2023-07-29T14:01:38;22.00;99.90
18502;DHT22;68437;52.236;5.710;2023-07-29T14:04:05;21.90;99.90
18502;DHT22;68437;52.236;5.710;2023-07-29T14:06:33;21.90;99.90
18502;DHT22;68437;52.236;5.710;2023-07-29T14:09:00;21.80;99.90
18502;DHT22;68437;52.236;5.710;2023-07-29T14:11:27;21.70;99.90
18502;DHT22;68437;52.236;5.710;2023-07-29T14:13:54;21.70;99.90
18502;DHT22;68437;52.236;5.710;2023-07-29T14:16:21;21.60;99.90
18502;DHT22;68437;52.236;5.710;2023-07-29T14:18:48;21.60;99.90
18502;DHT22;68437;52.236;5.710;2023-07-29T14:21:15;21.50;99.90
18502;DHT22;68437;52.236;5.710;2023-07-29T14:23:43;21.40;99.90
18502;DHT22;68437;52.236;5.710;2023-07-29T14:26:13;21.30;99.90
18502;DHT22;68437;52.236;5.710;2023-07-29T14:28:40;21.40;99.90
18502;DHT22;68437;52.236;5.710;2023-07-29T14:31:07;21.40;99.90
18502;DHT22;68437;52.236;5.710;2023-07-29T14:33:34;21.50;99.90
18502;DHT22;68437;52.236;5.710;2023-07-29T14:36:01;21.60;99.90
18502;DHT22;68437;52.236;5.710;2023-07-29T14:38:29;21.70;99.90
18502;DHT22;68437;52.236;5.710;2023-07-29T14:40:57;21.70;99.90
18502;DHT22;68437;52.236;5.710;2023-07-29T14:43:24;21.90;99.90
18502;DHT22;68437;52.236;5.710;2023-07-29T14:45:51;22.00;99.90
18502;DHT22;68437;52.236;5.710;2023-07-29T14:48:17;22.10;99.90
18502;DHT22;68437;52.236;5.710;2023-07-29T14:50:44;22.10;99.90
18502;DHT22;68437;52.236;5.710;2023-07-29T14:53:11;22.10;99.90
18502;DHT22;68437;52.236;5.710;2023-07-29T14:55:38;22.10;99.90
18502;DHT22;68437;52.236;5.710;2023-07-29T14:58:06;22.10;99.90
18502;DHT22;68437;52.236;5.710;2023-07-29T15:00:33;22.20;99.90
18502;DHT22;68437;52.236;5.710;2023-07-29T15:03:00;22.20;99.90
18502;DHT22;68437;52.236;5.710;2023-07-29T15:05:27;22.20;99.90
18502;DHT22;68437;52.236;5.710;2023-07-29T15:07:54;22.30;99.90
18502;DHT22;68437;52.236;5.710;2023-07-29T15:10:21;22.40;99.90
18502;DHT22;68437;52.236;5.710;2023-07-29T15:12:48;22.50;99.90
18502;DHT22;68437;52.236;5.710;2023-07-29T15:15:16;22.80;99.90
18502;DHT22;68437;52.236;5.710;2023-07-29T15:17:43;23.00;99.90
18502;DHT22;68437;52.236;5.710;2023-07-29T15:20:11;23.00;99.90
18502;DHT22;68437;52.236;5.710;2023-07-29T15:22:38;23.10;99.90
18502;DHT22;68437;52.236;5.710;2023-07-29T15:25:05;22.90;99.90
18502;DHT22;68437;52.236;5.710;2023-07-29T15:27:32;22.80;99.90
18502;DHT22;68437;52.236;5.710;2023-07-29T15:29:59;22.50;99.90
18502;DHT22;68437;52.236;5.710;2023-07-29T15:32:27;22.40;99.90
18502;DHT22;68437;52.236;5.710;2023-07-29T15:34:54;22.30;99.90